createdAt,value
2023-03-21T00:01:55.287Z,26.90
2023-03-21T00:04:28.349Z,27.35
2023-03-21T00:06:58.546Z,27.63
2023-03-21T00:09:26.234Z,27.30
2023-03-21T00:11:53.674Z,23.23
2023-03-21T00:14:21.124Z,24.50
2023-03-21T00:16:52.204Z,23.08
2023-03-21T00:19:25.163Z,25.10
2023-03-21T00:22:07.123Z,23.75
2023-03-21T00:24:36.050Z,23.52
2023-03-21T00:27:29.750Z,19.60
2023-03-21T00:29:51.021Z,21.42
2023-03-21T00:32:22.201Z,21.20
2023-03-21T00:35:40.733Z,20.35
2023-03-21T00:37:37.590Z,20.15
2023-03-21T00:40:16.302Z,20.80
2023-03-21T00:42:47.167Z,20.92
2023-03-21T00:45:15.602Z,18.52
2023-03-21T00:47:43.778Z,17.75
2023-03-21T00:50:12.789Z,20.17
2023-03-21T00:52:41.325Z,18.63
2023-03-21T00:55:17.035Z,20.23
2023-03-21T00:57:47.460Z,19.08
2023-03-21T01:00:20.450Z,18.83
2023-03-21T01:03:04.275Z,18.27
2023-03-21T01:06:12.615Z,18.23
2023-03-21T01:08:56.519Z,17.52
2023-03-21T01:11:26.976Z,18.05
2023-03-21T01:14:04.189Z,17.85
2023-03-21T01:16:38.436Z,17.75
2023-03-21T01:19:14.868Z,17.92
2023-03-21T01:21:49.832Z,17.77
2023-03-21T01:24:17.162Z,17.92
2023-03-21T01:26:44.412Z,18.00
2023-03-21T01:29:12.007Z,18.08
2023-03-21T01:31:39.579Z,19.92
2023-03-21T01:34:08.036Z,16.83
2023-03-21T01:36:35.422Z,19.58
2023-03-21T01:39:06.803Z,20.08
2023-03-21T01:41:43.284Z,18.98
2023-03-21T01:44:26.326Z,20.55
2023-03-21T01:47:09.628Z,19.42
2023-03-21T01:49:47.910Z,19.55
2023-03-21T01:52:39.542Z,21.10
2023-03-21T01:58:07.127Z,23.80
2023-03-21T02:00:55.330Z,24.73
2023-03-21T02:03:50.692Z,26.10
2023-03-21T02:06:51.667Z,24.58
2023-03-21T02:09:38.159Z,30.80
2023-03-21T02:12:12.995Z,31.27
2023-03-21T02:14:40.708Z,31.83
2023-03-21T02:17:59.581Z,29.73
2023-03-21T02:21:07.973Z,30.00
2023-03-21T02:23:53.690Z,28.15
2023-03-21T02:26:52.456Z,30.52
2023-03-21T02:29:42.547Z,31.13
2023-03-21T02:32:57.984Z,29.58
2023-03-21T02:36:14.057Z,28.17
2023-03-21T02:38:59.955Z,28.15
2023-03-21T02:41:54.851Z,26.10
2023-03-21T02:44:35.111Z,26.65
2023-03-21T02:47:08.172Z,24.70
2023-03-21T02:49:47.322Z,26.05
2023-03-21T02:52:35.478Z,26.73
2023-03-21T02:55:07.936Z,24.88
2023-03-21T02:57:50.322Z,25.30
2023-03-21T03:00:21.676Z,25.75
2023-03-21T03:02:54.618Z,24.05
2023-03-21T03:05:30.306Z,24.85
2023-03-21T03:08:07.044Z,25.67
2023-03-21T03:10:52.992Z,26.52
2023-03-21T03:13:38.495Z,27.08
2023-03-21T03:16:26.134Z,25.33
2023-03-21T03:18:55.980Z,26.27
2023-03-21T03:21:37.951Z,27.52
2023-03-21T03:24:09.948Z,25.95
2023-03-21T03:26:47.608Z,27.05
2023-03-21T03:29:18.922Z,27.15
2023-03-21T03:31:51.150Z,26.42
2023-03-21T03:34:27.710Z,27.77
2023-03-21T03:36:57.723Z,28.23
2023-03-21T03:39:32.106Z,27.63
2023-03-21T03:42:27.171Z,28.65
2023-03-21T03:45:02.029Z,27.40
2023-03-21T03:47:56.085Z,28.10
2023-03-21T03:50:30.988Z,25.95
2023-03-21T03:53:18.171Z,25.35
2023-03-21T03:55:49.319Z,27.42
2023-03-21T03:58:23.799Z,27.65
2023-03-21T04:00:55.325Z,27.45
2023-03-21T04:03:23.073Z,25.52
2023-03-21T04:05:50.875Z,25.80
2023-03-21T04:08:18.844Z,26.02
2023-03-21T04:10:52.034Z,26.92
2023-03-21T04:13:19.834Z,24.38
2023-03-21T04:16:09.757Z,23.95
2023-03-21T04:18:39.309Z,25.05
2023-03-21T04:21:13.245Z,26.08
2023-03-21T04:23:42.001Z,24.55
2023-03-21T04:26:09.397Z,25.98
2023-03-21T04:28:41.760Z,26.95
2023-03-21T04:31:41.505Z,25.48
2023-03-21T04:34:12.491Z,25.77
2023-03-21T04:36:50.947Z,22.83
2023-03-21T04:39:18.411Z,24.77
2023-03-21T04:41:49.715Z,24.52
2023-03-21T04:44:18.301Z,23.02
2023-03-21T04:46:50.379Z,22.58
2023-03-21T04:49:18.960Z,23.52
2023-03-21T04:51:46.377Z,23.15
2023-03-21T04:54:19.318Z,21.88
2023-03-21T04:56:46.841Z,19.88
2023-03-21T04:59:17.864Z,20.85
2023-03-21T05:01:45.973Z,20.27
2023-03-21T05:04:14.710Z,18.85
2023-03-21T05:06:45.352Z,19.65
2023-03-21T05:09:13.570Z,19.15
2023-03-21T05:11:41.303Z,18.85
2023-03-21T05:14:14.623Z,19.10
2023-03-21T05:16:45.110Z,18.15
2023-03-21T05:19:14.034Z,18.63
2023-03-21T05:21:43.514Z,19.03
2023-03-21T05:24:20.577Z,17.60
2023-03-21T05:26:52.493Z,19.63
2023-03-21T05:29:23.488Z,17.88
2023-03-21T05:32:00.727Z,18.25
2023-03-21T05:34:28.787Z,16.33
2023-03-21T05:36:56.327Z,16.80
2023-03-21T05:39:26.644Z,15.90
2023-03-21T05:42:03.089Z,17.25
2023-03-21T05:44:31.697Z,16.63
2023-03-21T05:47:03.414Z,15.70
2023-03-21T05:49:38.248Z,17.55
2023-03-21T05:52:06.510Z,17.33
2023-03-21T05:54:34.075Z,16.67
2023-03-21T05:57:03.209Z,18.38
2023-03-21T05:59:49.808Z,18.73
2023-03-21T06:02:18.754Z,17.80
2023-03-21T06:04:47.340Z,17.42
2023-03-21T06:07:14.546Z,16.42
2023-03-21T06:09:42.677Z,18.50
2023-03-21T06:12:10.069Z,17.98
2023-03-21T06:15:06.168Z,16.88
2023-03-21T06:17:44.618Z,18.25
2023-03-21T06:20:14.397Z,19.23
2023-03-21T06:22:47.972Z,18.63
2023-03-21T06:25:15.536Z,16.92
2023-03-21T06:27:43.928Z,16.83
2023-03-21T06:30:11.822Z,17.13
2023-03-21T06:32:46.861Z,16.52
2023-03-21T06:35:18.770Z,16.08
2023-03-21T06:37:49.305Z,16.00
2023-03-21T06:40:17.695Z,16.00
2023-03-21T06:42:45.939Z,16.05
2023-03-21T06:45:14.199Z,15.70
2023-03-21T06:47:42.927Z,16.00
2023-03-21T06:50:19.579Z,17.58
2023-03-21T06:52:47.068Z,15.85
2023-03-21T06:55:15.560Z,15.45
2023-03-21T06:57:43.135Z,15.23
2023-03-21T07:00:11.603Z,16.48
2023-03-21T07:02:45.000Z,17.45
2023-03-21T07:05:17.221Z,17.10
2023-03-21T07:07:45.205Z,16.52
2023-03-21T07:10:12.846Z,16.92
2023-03-21T07:12:59.104Z,17.08
2023-03-21T07:15:53.661Z,15.93
2023-03-21T07:18:21.373Z,16.02
2023-03-21T07:20:52.391Z,15.77
2023-03-21T07:23:22.867Z,16.55
2023-03-21T07:25:51.312Z,15.77
2023-03-21T07:28:19.236Z,15.05
2023-03-21T07:30:53.618Z,15.40
2023-03-21T07:33:21.492Z,16.10
2023-03-21T07:35:51.262Z,15.25
2023-03-21T07:38:19.843Z,15.33
2023-03-21T07:40:48.509Z,14.90
2023-03-21T07:45:56.931Z,16.30
2023-03-21T07:48:24.528Z,14.95
2023-03-21T07:50:52.164Z,14.05
2023-03-21T07:53:19.649Z,16.05
2023-03-21T07:55:53.138Z,13.85
2023-03-21T07:58:20.941Z,13.57
2023-03-21T08:00:48.936Z,15.30
2023-03-21T08:03:16.482Z,14.57
2023-03-21T08:05:44.938Z,15.75
2023-03-21T08:08:12.635Z,13.50
2023-03-21T08:10:41.981Z,14.40
2023-03-21T08:13:09.230Z,13.57
2023-03-21T08:15:38.048Z,13.13
2023-03-21T08:18:05.716Z,13.85
2023-03-21T08:20:33.006Z,11.43
2023-03-21T08:23:00.366Z,12.45
2023-03-21T08:25:28.369Z,11.10
2023-03-21T08:27:55.823Z,10.50
2023-03-21T08:30:26.007Z,10.02
2023-03-21T08:33:00.680Z,9.57
2023-03-21T08:35:30.792Z,10.50
2023-03-21T08:37:58.068Z,10.50
2023-03-21T08:40:26.175Z,9.40
2023-03-21T08:42:53.544Z,8.80
2023-03-21T08:45:21.170Z,8.65
2023-03-21T08:47:48.504Z,8.32
2023-03-21T08:50:19.026Z,8.20
2023-03-21T08:52:46.617Z,8.40
2023-03-21T08:55:15.758Z,8.70
2023-03-21T08:57:44.188Z,7.90
2023-03-21T09:00:17.272Z,7.35
2023-03-21T09:02:46.971Z,8.30
2023-03-21T09:05:16.782Z,8.30
2023-03-21T09:07:45.073Z,7.87
2023-03-21T09:10:20.613Z,7.20
2023-03-21T09:12:50.842Z,7.53
2023-03-21T09:15:20.485Z,6.90
2023-03-21T09:17:50.357Z,6.90
2023-03-21T09:20:21.258Z,6.38
2023-03-21T09:22:50.310Z,6.65
2023-03-21T09:25:19.442Z,6.55
2023-03-21T09:27:48.012Z,5.95
2023-03-21T09:30:17.106Z,5.82
2023-03-21T09:32:49.999Z,5.43
2023-03-21T09:35:18.958Z,6.38
2023-03-21T09:37:48.209Z,6.45
2023-03-21T09:40:52.693Z,6.95
2023-03-21T09:43:59.105Z,8.00
2023-03-21T09:46:45.379Z,8.45
2023-03-21T09:49:25.738Z,8.10
2023-03-21T09:51:56.606Z,8.35
2023-03-21T09:54:33.344Z,8.60
2023-03-21T09:57:07.928Z,8.52
2023-03-21T09:59:40.364Z,8.20
2023-03-21T10:02:19.745Z,8.68
2023-03-21T10:04:47.101Z,8.10
2023-03-21T10:07:18.168Z,10.68
2023-03-21T10:09:47.777Z,10.07
2023-03-21T10:12:21.905Z,9.73
2023-03-21T10:14:54.154Z,10.35
2023-03-21T10:17:34.035Z,10.45
2023-03-21T10:20:12.312Z,10.05
2023-03-21T10:22:39.740Z,12.02
2023-03-21T10:25:11.362Z,10.18
2023-03-21T10:27:39.014Z,10.57
2023-03-21T10:30:08.411Z,11.10
2023-03-21T10:32:35.977Z,12.18
2023-03-21T10:35:05.147Z,10.55
2023-03-21T10:37:32.883Z,11.27
2023-03-21T10:40:00.400Z,12.20
2023-03-21T10:42:31.446Z,11.25
2023-03-21T10:44:59.016Z,12.30
2023-03-21T10:47:36.345Z,11.50
2023-03-21T10:50:12.491Z,12.93
2023-03-21T10:53:00.395Z,12.00
2023-03-21T10:55:34.394Z,12.38
2023-03-21T10:58:29.671Z,13.52
2023-03-21T11:01:03.207Z,14.35
2023-03-21T11:03:43.625Z,15.45
2023-03-21T11:06:27.265Z,16.17
2023-03-21T11:08:58.895Z,17.15
2023-03-21T11:11:27.642Z,16.67
2023-03-21T11:14:04.257Z,16.33
2023-03-21T11:16:43.773Z,16.25
2023-03-21T11:19:18.160Z,17.20
2023-03-21T11:21:45.844Z,15.63
2023-03-21T11:24:17.564Z,15.52
2023-03-21T11:26:48.225Z,16.00
2023-03-21T11:31:53.708Z,15.15
2023-03-21T11:34:29.758Z,15.50
2023-03-21T11:37:04.248Z,14.32
2023-03-21T11:39:37.388Z,13.35
2023-03-21T11:42:04.807Z,15.00
2023-03-21T11:44:35.431Z,12.80
2023-03-21T11:47:04.059Z,11.40
2023-03-21T11:49:31.561Z,11.20
2023-03-21T11:52:21.027Z,12.27
2023-03-21T11:55:04.068Z,11.35
2023-03-21T11:57:44.669Z,11.55
2023-03-21T12:00:22.833Z,11.30
2023-03-21T12:03:07.965Z,10.75
2023-03-21T12:05:39.223Z,10.88
2023-03-21T12:08:12.832Z,10.13
2023-03-21T12:10:53.745Z,10.18
2023-03-21T12:13:41.481Z,9.80
2023-03-21T12:16:43.777Z,10.60
2023-03-21T12:19:32.367Z,8.70
2023-03-21T12:22:27.605Z,9.00
2023-03-21T12:24:57.037Z,8.93
2023-03-21T12:27:42.352Z,9.82
2023-03-21T12:30:31.312Z,8.80
2023-03-21T12:33:13.648Z,8.38
2023-03-21T12:35:48.469Z,8.70
2023-03-21T12:38:23.753Z,8.63
2023-03-21T12:41:12.779Z,7.47
2023-03-21T12:43:49.104Z,7.90
2023-03-21T12:46:30.634Z,8.57
2023-03-21T12:49:18.238Z,6.97
2023-03-21T12:51:50.566Z,7.97
2023-03-21T12:54:30.553Z,7.85
2023-03-21T12:57:04.648Z,7.78
2023-03-21T12:59:37.770Z,8.35
2023-03-21T13:02:30.722Z,8.07
2023-03-21T13:05:20.422Z,8.32
2023-03-21T13:07:52.926Z,8.38
2023-03-21T13:10:21.642Z,7.80
2023-03-21T13:12:57.862Z,9.95
2023-03-21T13:15:28.325Z,9.07
2023-03-21T13:18:16.288Z,7.97
2023-03-21T13:20:53.025Z,8.55
2023-03-21T13:23:25.451Z,8.38
2023-03-21T13:25:55.794Z,8.05
2023-03-21T13:28:30.369Z,8.50
2023-03-21T13:31:50.956Z,8.70
2023-03-21T13:34:22.615Z,8.48
2023-03-21T13:39:27.933Z,8.70
2023-03-21T13:42:03.703Z,8.20
2023-03-21T13:44:50.531Z,9.10
2023-03-21T13:47:55.739Z,9.23
2023-03-21T13:50:24.801Z,8.45
2023-03-21T13:53:23.660Z,8.82
2023-03-21T13:56:22.131Z,8.52
2023-03-21T13:58:50.527Z,8.15
2023-03-21T14:01:34.821Z,8.90
2023-03-21T14:04:05.206Z,8.60
2023-03-21T14:06:47.596Z,7.68
2023-03-21T14:09:31.784Z,7.13
2023-03-21T14:12:07.334Z,7.97
2023-03-21T14:14:41.968Z,7.32
2023-03-21T14:17:23.101Z,8.23
2023-03-21T14:20:03.595Z,8.02
2023-03-21T14:22:31.041Z,7.45
2023-03-21T14:25:03.117Z,7.35
2023-03-21T14:27:37.783Z,7.88
2023-03-21T14:30:06.111Z,7.43
2023-03-21T14:32:35.460Z,7.22
2023-03-21T14:35:04.463Z,7.97
2023-03-21T14:37:38.917Z,7.22
2023-03-21T14:40:26.696Z,7.65
2023-03-21T14:42:55.040Z,7.40
2023-03-21T14:45:28.288Z,7.13
2023-03-21T14:48:08.913Z,7.85
2023-03-21T14:50:57.517Z,7.90
2023-03-21T14:53:36.190Z,7.32
2023-03-21T14:56:20.168Z,7.05
2023-03-21T14:58:48.086Z,6.70
2023-03-21T15:01:21.920Z,6.70
2023-03-21T15:03:52.170Z,6.68
2023-03-21T15:06:19.884Z,6.78
2023-03-21T15:09:03.092Z,7.88
2023-03-21T15:11:33.022Z,7.18
2023-03-21T15:14:05.088Z,8.85
2023-03-21T15:16:32.598Z,7.18
2023-03-21T15:19:02.221Z,6.75
2023-03-21T15:21:38.139Z,7.80
2023-03-21T15:24:14.116Z,6.95
2023-03-21T15:26:45.919Z,7.13
2023-03-21T15:29:15.045Z,8.05
2023-03-21T15:31:43.353Z,8.02
2023-03-21T15:34:27.575Z,7.65
2023-03-21T15:37:07.674Z,8.38
2023-03-21T15:39:36.678Z,7.60
2023-03-21T15:42:21.232Z,7.15
2023-03-21T15:44:52.154Z,7.65
2023-03-21T15:47:43.670Z,7.75
2023-03-21T15:50:29.711Z,7.60
2023-03-21T15:53:00.770Z,6.88
2023-03-21T15:55:42.640Z,7.18
2023-03-21T15:58:21.293Z,6.88
2023-03-21T16:00:55.518Z,7.70
2023-03-21T16:03:26.497Z,7.78
2023-03-21T16:06:10.230Z,7.63
2023-03-21T16:09:03.695Z,7.25
2023-03-21T16:11:49.167Z,7.97
2023-03-21T16:14:21.069Z,8.13
2023-03-21T16:16:48.855Z,7.80
2023-03-21T16:19:17.591Z,7.05
2023-03-21T16:21:44.872Z,7.28
2023-03-21T16:24:13.693Z,7.65
2023-03-21T16:26:48.077Z,7.57
2023-03-21T16:29:16.780Z,7.75
2023-03-21T16:31:44.472Z,8.32
2023-03-21T16:34:12.639Z,7.78
2023-03-21T16:36:41.494Z,8.50
2023-03-21T16:39:24.447Z,7.07
2023-03-21T16:41:52.290Z,8.40
2023-03-21T16:44:20.179Z,8.05
2023-03-21T16:46:47.957Z,7.95
2023-03-21T16:49:25.829Z,7.63
2023-03-21T16:51:56.117Z,7.70
2023-03-21T16:54:24.039Z,8.20
2023-03-21T16:56:54.335Z,8.35
2023-03-21T16:59:22.246Z,8.45
2023-03-21T17:01:49.950Z,8.90
2023-03-21T17:04:18.632Z,8.15
2023-03-21T17:06:49.548Z,8.70
2023-03-21T17:09:21.156Z,8.68
2023-03-21T17:11:49.576Z,9.05
2023-03-21T17:14:18.642Z,9.35
2023-03-21T17:16:46.386Z,11.30
2023-03-21T17:19:21.992Z,10.55
2023-03-21T17:21:49.322Z,11.32
2023-03-21T17:24:17.556Z,11.30
2023-03-21T17:26:44.969Z,12.77
2023-03-21T17:29:15.695Z,11.68
2023-03-21T17:34:15.682Z,13.60
2023-03-21T17:36:46.723Z,13.73
2023-03-21T17:39:25.998Z,14.27
2023-03-21T17:41:54.108Z,14.95
2023-03-21T17:44:21.864Z,14.48
2023-03-21T17:46:51.567Z,14.55
2023-03-21T17:49:21.257Z,14.90
2023-03-21T17:51:48.849Z,16.02
2023-03-21T17:54:17.574Z,15.48
2023-03-21T17:56:44.866Z,16.30
2023-03-21T17:59:13.963Z,16.08
2023-03-21T18:01:44.953Z,15.18
2023-03-21T18:04:12.270Z,16.30
2023-03-21T18:06:40.022Z,14.82
2023-03-21T18:09:12.148Z,14.05
2023-03-21T18:11:40.814Z,16.38
2023-03-21T18:14:17.566Z,15.05
2023-03-21T18:16:47.839Z,15.70
2023-03-21T18:19:17.924Z,16.52
2023-03-21T18:21:46.116Z,15.23
2023-03-21T18:24:14.408Z,15.65
2023-03-21T18:26:43.344Z,16.98
2023-03-21T18:32:07.805Z,16.42
2023-03-21T18:34:38.804Z,17.13
2023-03-21T18:39:37.291Z,15.57
2023-03-21T18:42:06.140Z,16.83
2023-03-21T18:44:37.590Z,17.20
2023-03-21T18:47:08.554Z,16.35
2023-03-21T18:50:10.436Z,15.80
2023-03-21T18:52:23.849Z,17.20
2023-03-21T18:54:51.257Z,16.65
2023-03-21T18:57:37.431Z,16.67
2023-03-21T19:00:13.838Z,15.98
2023-03-21T19:02:48.090Z,15.55
2023-03-21T19:05:19.057Z,14.95
2023-03-21T19:07:48.068Z,16.42
2023-03-21T19:10:19.928Z,16.45
2023-03-21T19:12:49.625Z,17.02
2023-03-21T19:15:19.861Z,18.45
2023-03-21T19:20:36.505Z,18.25
2023-03-21T19:23:04.258Z,18.45
2023-03-21T19:25:32.562Z,20.08
2023-03-21T19:27:59.966Z,21.35
2023-03-21T19:30:27.979Z,19.70
2023-03-21T19:32:55.979Z,19.90
2023-03-21T19:35:23.293Z,21.50
2023-03-21T19:37:50.833Z,20.38
2023-03-21T19:40:19.886Z,20.48
2023-03-21T19:42:47.503Z,20.48
2023-03-21T19:45:14.824Z,19.52
2023-03-21T19:47:42.221Z,19.90
2023-03-21T19:52:57.602Z,19.50
2023-03-21T19:55:25.866Z,21.60
2023-03-21T19:57:53.808Z,20.60
2023-03-21T20:00:21.830Z,20.67
2023-03-21T20:02:49.307Z,20.27
2023-03-21T20:05:20.733Z,21.05
2023-03-21T20:07:48.275Z,20.30
2023-03-21T20:10:15.772Z,20.50
2023-03-21T20:12:43.098Z,20.98
2023-03-21T20:15:17.624Z,19.88
2023-03-21T20:17:47.639Z,21.30
2023-03-21T20:20:17.990Z,20.60
2023-03-21T20:25:40.751Z,19.50
2023-03-21T20:28:20.390Z,18.65
2023-03-21T20:30:58.486Z,19.73
2023-03-21T20:33:27.154Z,19.35
2023-03-21T20:38:51.462Z,17.67
2023-03-21T20:41:19.036Z,18.30
2023-03-21T20:46:36.414Z,18.88
2023-03-21T20:49:06.758Z,19.38
2023-03-21T20:54:21.504Z,18.52
2023-03-21T20:56:48.984Z,18.60
2023-03-21T20:59:24.949Z,17.70
2023-03-21T21:01:57.308Z,17.15
2023-03-21T21:04:48.228Z,18.98
2023-03-21T21:07:21.151Z,17.52
2023-03-21T21:09:49.454Z,15.80
2023-03-21T21:12:19.652Z,16.73
2023-03-21T21:14:48.322Z,15.50
2023-03-21T21:17:42.881Z,14.73
2023-03-21T21:20:17.078Z,14.57
2023-03-21T21:22:58.562Z,14.35
2023-03-21T21:25:27.427Z,13.93
2023-03-21T21:27:55.435Z,14.75
2023-03-21T21:30:22.875Z,15.05
2023-03-21T21:32:50.518Z,13.77
2023-03-21T21:35:19.614Z,14.48
2023-03-21T21:37:47.048Z,14.80
2023-03-21T21:40:17.048Z,14.52
2023-03-21T21:42:44.916Z,14.80
2023-03-21T21:45:13.489Z,15.50
2023-03-21T21:47:40.993Z,13.43
2023-03-21T21:50:09.146Z,14.13
2023-03-21T21:52:37.542Z,15.10
2023-03-21T21:55:06.560Z,13.77
2023-03-21T21:57:34.658Z,14.18
2023-03-21T22:00:06.538Z,14.50
2023-03-21T22:02:41.511Z,14.75
2023-03-21T22:05:09.549Z,14.55
2023-03-21T22:07:38.204Z,14.10
2023-03-21T22:10:06.871Z,14.02
2023-03-21T22:12:34.595Z,14.90
2023-03-21T22:15:03.986Z,13.57
2023-03-21T22:17:31.342Z,13.75
2023-03-21T22:20:05.624Z,13.10
2023-03-21T22:22:34.820Z,12.20
2023-03-21T22:25:07.416Z,12.00
2023-03-21T22:27:35.024Z,12.45
2023-03-21T22:30:07.464Z,12.35
2023-03-21T22:32:36.699Z,12.73
2023-03-21T22:35:05.893Z,13.13
2023-03-21T22:37:34.860Z,13.02
2023-03-21T22:40:05.524Z,12.70
2023-03-21T22:42:33.143Z,11.68
2023-03-21T22:45:02.842Z,11.98
2023-03-21T22:47:30.439Z,12.07
2023-03-21T22:49:57.974Z,12.50
2023-03-21T22:52:25.434Z,11.52
2023-03-21T22:54:52.946Z,11.82
2023-03-21T22:57:20.721Z,12.77
2023-03-21T22:59:48.587Z,13.30
2023-03-21T23:02:16.189Z,13.40
2023-03-21T23:04:43.596Z,12.88
2023-03-21T23:07:10.888Z,12.20
2023-03-21T23:09:38.486Z,12.73
2023-03-21T23:12:06.042Z,14.57
2023-03-21T23:14:33.396Z,15.73
2023-03-21T23:17:03.168Z,17.75
2023-03-21T23:19:31.328Z,17.23
2023-03-21T23:21:59.013Z,17.90
2023-03-21T23:24:26.642Z,18.75
2023-03-21T23:26:53.988Z,18.48
2023-03-21T23:29:21.401Z,17.92
2023-03-21T23:31:48.730Z,17.63
2023-03-21T23:34:16.198Z,18.70
2023-03-21T23:36:43.523Z,18.05
2023-03-21T23:39:11.016Z,17.52
2023-03-21T23:41:38.387Z,18.10
2023-03-21T23:44:06.343Z,16.23
2023-03-21T23:46:33.665Z,16.17
2023-03-21T23:49:03.618Z,15.15
2023-03-21T23:51:30.985Z,15.32
2023-03-21T23:53:59.715Z,15.65
2023-03-21T23:56:28.316Z,14.85
2023-03-21T23:59:00.538Z,15.35
